createdAt,value
2022-11-05T00:08:05.268Z,100
2022-11-05T00:23:47.584Z,100
2022-11-05T00:39:29.740Z,100
2022-11-05T00:55:12.369Z,100
2022-11-05T01:10:55.409Z,100
2022-11-05T01:26:37.780Z,100
2022-11-05T01:42:19.892Z,100
2022-11-05T01:58:02.270Z,100
2022-11-05T02:13:44.940Z,100
2022-11-05T02:29:27.039Z,100
2022-11-05T02:45:09.910Z,100
2022-11-05T03:00:52.508Z,100
2022-11-05T03:16:35.539Z,100
2022-11-05T03:32:18.023Z,100
2022-11-05T03:48:00.423Z,100
2022-11-05T04:03:42.647Z,100
2022-11-05T04:19:24.763Z,100
2022-11-05T04:35:07.583Z,100
2022-11-05T04:50:50.178Z,100
2022-11-05T05:06:32.449Z,100
2022-11-05T05:22:15.083Z,100
2022-11-05T05:37:57.504Z,100
2022-11-05T05:53:39.927Z,100
2022-11-05T06:09:22.875Z,100
2022-11-05T06:25:05.396Z,100
2022-11-05T06:40:48.033Z,100
2022-11-05T06:56:30.798Z,100
2022-11-05T07:12:13.502Z,100
2022-11-05T07:27:56.156Z,100
2022-11-05T07:43:38.910Z,100
2022-11-05T07:59:21.078Z,100
2022-11-05T08:15:03.475Z,100
2022-11-05T08:30:45.905Z,100
2022-11-05T08:46:28.262Z,99.54
2022-11-05T09:02:11.279Z,99.03
2022-11-05T09:17:53.512Z,96.53
2022-11-05T09:33:36.259Z,91.14
2022-11-05T09:49:19.242Z,86.93
2022-11-05T10:05:01.411Z,81.4
2022-11-05T10:20:43.707Z,74.37
2022-11-05T10:36:26.025Z,67.1
2022-11-05T10:52:08.426Z,68.59
2022-11-05T11:07:51.325Z,62.83
2022-11-05T11:23:33.975Z,59.47
2022-11-05T11:39:16.727Z,55.91
2022-11-05T11:54:59.574Z,59.5
2022-11-05T12:10:42.247Z,58.39
2022-11-05T12:26:24.366Z,58.03
2022-11-05T12:42:06.735Z,54.46
2022-11-05T12:57:49.112Z,48.38
2022-11-05T13:13:31.894Z,44.25
2022-11-05T13:29:14.666Z,43.51
2022-11-05T13:44:57.565Z,43.6
2022-11-05T14:00:40.399Z,45.23
2022-11-05T14:16:22.861Z,52.86
2022-11-05T14:32:05.638Z,57.78
2022-11-05T14:32:52.988Z,57.69
2022-11-05T14:48:35.179Z,60.92
2022-11-05T15:04:18.108Z,63.21
2022-11-05T15:20:00.321Z,65.57
2022-11-05T15:35:43.272Z,67.63
2022-11-05T15:51:25.733Z,69.23
2022-11-05T16:07:08.651Z,74.07
2022-11-05T16:22:51.441Z,76.21
2022-11-05T16:38:34.033Z,79.39
2022-11-05T16:54:16.231Z,81.31
2022-11-05T17:09:58.506Z,81.67
2022-11-05T17:25:40.882Z,83.09
2022-11-05T17:41:23.238Z,84.66
2022-11-05T17:57:05.713Z,85.72
2022-11-05T18:12:48.514Z,86.09
2022-11-05T18:28:31.044Z,87.21
2022-11-05T18:44:13.917Z,87.09
2022-11-05T18:59:56.641Z,87.34
2022-11-05T19:15:39.387Z,88.54
2022-11-05T19:31:22.247Z,90.51
2022-11-05T19:47:04.832Z,90.44
2022-11-05T20:02:47.363Z,88.92
2022-11-05T20:18:30.471Z,89.38
2022-11-05T20:34:13.078Z,88.56
2022-11-05T20:49:56.123Z,88.2
2022-11-05T21:05:38.653Z,88.91
2022-11-05T21:21:21.103Z,89.56
2022-11-05T21:37:04.270Z,90.68
2022-11-05T21:52:46.879Z,90.51
2022-11-05T22:08:29.112Z,90.67
2022-11-05T22:24:11.642Z,90.85
2022-11-05T22:39:54.381Z,91.69
2022-11-05T22:55:36.681Z,91.74
2022-11-05T23:11:19.113Z,92.29
2022-11-05T23:27:02.204Z,95.66
2022-11-05T23:42:44.317Z,97.72
2022-11-05T23:58:27.223Z,99.6
